sensor_id;sensor_type;location;lat;lon;timestamp;temperature;humidity
6439;DHT22;3252;52.540;13.290;2023-07-08T00:01:45;17.60;99.90
6439;DHT22;3252;52.540;13.290;2023-07-08T00:03:48;17.60;99.90
6439;DHT22;3252;52.540;13.290;2023-07-08T00:05:54;17.60;99.90
6439;DHT22;3252;52.540;13.290;2023-07-08T00:07:58;17.60;99.90
6439;DHT22;3252;52.540;13.290;2023-07-08T00:10:01;17.50;99.90
6439;DHT22;3252;52.540;13.290;2023-07-08T00:12:08;17.50;99.90
6439;DHT22;3252;52.540;13.290;2023-07-08T00:14:10;17.40;99.90
6439;DHT22;3252;52.540;13.290;2023-07-08T00:16:15;17.40;99.90
6439;DHT22;3252;52.540;13.290;2023-07-08T00:18:19;17.30;99.90
6439;DHT22;3252;52.540;13.290;2023-07-08T00:20:26;17.30;99.90
6439;DHT22;3252;52.540;13.290;2023-07-08T00:22:30;17.20;99.90
6439;DHT22;3252;52.540;13.290;2023-07-08T00:24:38;17.20;99.90
6439;DHT22;3252;52.540;13.290;2023-07-08T00:26:40;17.20;99.90
6439;DHT22;3252;52.540;13.290;2023-07-08T00:28:43;17.20;99.90
6439;DHT22;3252;52.540;13.290;2023-07-08T00:30:47;17.20;99.90
6439;DHT22;3252;52.540;13.290;2023-07-08T00:32:52;17.10;99.90
6439;DHT22;3252;52.540;13.290;2023-07-08T00:34:55;17.10;99.90
6439;DHT22;3252;52.540;13.290;2023-07-08T00:36:58;17.10;99.90
6439;DHT22;3252;52.540;13.290;2023-07-08T00:39:00;17.10;99.90
6439;DHT22;3252;52.540;13.290;2023-07-08T00:41:08;17.10;99.90
6439;DHT22;3252;52.540;13.290;2023-07-08T00:43:13;17.10;99.90
6439;DHT22;3252;52.540;13.290;2023-07-08T00:45:27;17.00;99.90
6439;DHT22;3252;52.540;13.290;2023-07-08T00:47:31;17.00;99.90
6439;DHT22;3252;52.540;13.290;2023-07-08T00:49:37;17.00;99.90
6439;DHT22;3252;52.540;13.290;2023-07-08T00:51:41;17.00;99.90
6439;DHT22;3252;52.540;13.290;2023-07-08T00:53:44;17.00;99.90
6439;DHT22;3252;52.540;13.290;2023-07-08T00:55:46;17.00;99.90
6439;DHT22;3252;52.540;13.290;2023-07-08T00:57:50;17.00;99.90
6439;DHT22;3252;52.540;13.290;2023-07-08T00:59:55;17.00;99.90
6439;DHT22;3252;52.540;13.290;2023-07-08T01:02:01;16.90;99.90
6439;DHT22;3252;52.540;13.290;2023-07-08T01:04:09;16.90;99.90
6439;DHT22;3252;52.540;13.290;2023-07-08T01:06:12;17.00;99.90
6439;DHT22;3252;52.540;13.290;2023-07-08T01:08:15;17.00;99.90
6439;DHT22;3252;52.540;13.290;2023-07-08T01:10:25;17.00;99.90
6439;DHT22;3252;52.540;13.290;2023-07-08T01:12:31;17.00;99.90
6439;DHT22;3252;52.540;13.290;2023-07-08T01:14:39;16.90;99.90
6439;DHT22;3252;52.540;13.290;2023-07-08T01:16:44;16.90;99.90
6439;DHT22;3252;52.540;13.290;2023-07-08T01:18:50;16.90;99.90
6439;DHT22;3252;52.540;13.290;2023-07-08T01:20:54;16.90;99.90
6439;DHT22;3252;52.540;13.290;2023-07-08T01:22:57;16.80;99.90
6439;DHT22;3252;52.540;13.290;2023-07-08T01:25:01;16.70;99.90
6439;DHT22;3252;52.540;13.290;2023-07-08T01:27:08;16.70;99.90
6439;DHT22;3252;52.540;13.290;2023-07-08T01:29:12;16.60;99.90
6439;DHT22;3252;52.540;13.290;2023-07-08T01:31:14;16.60;99.90
6439;DHT22;3252;52.540;13.290;2023-07-08T01:33:19;16.60;99.90
6439;DHT22;3252;52.540;13.290;2023-07-08T01:35:23;16.60;99.90
6439;DHT22;3252;52.540;13.290;2023-07-08T01:37:27;16.50;99.90
6439;DHT22;3252;52.540;13.290;2023-07-08T01:39:32;16.50;99.90
6439;DHT22;3252;52.540;13.290;2023-07-08T01:41:34;16.40;99.90
6439;DHT22;3252;52.540;13.290;2023-07-08T01:43:36;16.40;99.90
6439;DHT22;3252;52.540;13.290;2023-07-08T01:45:40;16.40;99.90
6439;DHT22;3252;52.540;13.290;2023-07-08T01:47:44;16.40;99.90
6439;DHT22;3252;52.540;13.290;2023-07-08T01:49:48;16.30;99.90
6439;DHT22;3252;52.540;13.290;2023-07-08T01:51:51;16.30;99.90
6439;DHT22;3252;52.540;13.290;2023-07-08T01:53:53;16.30;99.90
6439;DHT22;3252;52.540;13.290;2023-07-08T01:55:57;16.30;99.90
6439;DHT22;3252;52.540;13.290;2023-07-08T01:58:00;16.30;99.90
6439;DHT22;3252;52.540;13.290;2023-07-08T02:00:03;16.30;99.90
6439;DHT22;3252;52.540;13.290;2023-07-08T02:02:14;16.30;99.90
6439;DHT22;3252;52.540;13.290;2023-07-08T02:04:19;16.30;99.90
6439;DHT22;3252;52.540;13.290;2023-07-08T02:06:22;16.30;99.90
6439;DHT22;3252;52.540;13.290;2023-07-08T02:08:24;16.30;99.90
6439;DHT22;3252;52.540;13.290;2023-07-08T02:10:26;16.20;99.90
6439;DHT22;3252;52.540;13.290;2023-07-08T02:12:30;16.30;99.90
6439;DHT22;3252;52.540;13.290;2023-07-08T02:14:33;16.20;99.90
6439;DHT22;3252;52.540;13.290;2023-07-08T02:16:35;16.20;99.90
6439;DHT22;3252;52.540;13.290;2023-07-08T02:18:37;16.20;99.90
6439;DHT22;3252;52.540;13.290;2023-07-08T02:20:39;16.20;99.90
6439;DHT22;3252;52.540;13.290;2023-07-08T02:22:42;16.20;99.90
6439;DHT22;3252;52.540;13.290;2023-07-08T02:24:44;16.20;99.90
6439;DHT22;3252;52.540;13.290;2023-07-08T02:26:46;16.10;99.90
6439;DHT22;3252;52.540;13.290;2023-07-08T02:28:50;16.00;99.90
6439;DHT22;3252;52.540;13.290;2023-07-08T02:30:56;16.00;99.90
6439;DHT22;3252;52.540;13.290;2023-07-08T02:33:03;15.90;99.90
6439;DHT22;3252;52.540;13.290;2023-07-08T02:35:07;15.90;99.90
6439;DHT22;3252;52.540;13.290;2023-07-08T02:37:10;15.80;99.90
6439;DHT22;3252;52.540;13.290;2023-07-08T02:39:12;15.80;99.90
6439;DHT22;3252;52.540;13.290;2023-07-08T02:41:14;15.70;99.90
6439;DHT22;3252;52.540;13.290;2023-07-08T02:43:16;15.80;99.90
6439;DHT22;3252;52.540;13.290;2023-07-08T02:45:19;15.70;99.90
6439;DHT22;3252;52.540;13.290;2023-07-08T02:47:22;15.70;99.90
6439;DHT22;3252;52.540;13.290;2023-07-08T02:49:24;15.70;99.90
6439;DHT22;3252;52.540;13.290;2023-07-08T02:51:26;15.70;99.90
6439;DHT22;3252;52.540;13.290;2023-07-08T02:53:29;15.60;99.90
6439;DHT22;3252;52.540;13.290;2023-07-08T02:55:31;15.70;99.90
6439;DHT22;3252;52.540;13.290;2023-07-08T02:57:33;15.70;99.90
6439;DHT22;3252;52.540;13.290;2023-07-08T02:59:36;15.70;99.90
6439;DHT22;3252;52.540;13.290;2023-07-08T03:01:40;15.60;99.90
6439;DHT22;3252;52.540;13.290;2023-07-08T03:03:43;15.60;99.90
6439;DHT22;3252;52.540;13.290;2023-07-08T03:05:48;15.60;99.90
6439;DHT22;3252;52.540;13.290;2023-07-08T03:07:54;15.50;99.90
6439;DHT22;3252;52.540;13.290;2023-07-08T03:09:57;15.50;99.90
6439;DHT22;3252;52.540;13.290;2023-07-08T03:11:59;15.50;99.90
6439;DHT22;3252;52.540;13.290;2023-07-08T03:14:02;15.50;99.90
6439;DHT22;3252;52.540;13.290;2023-07-08T03:16:04;15.40;99.90
6439;DHT22;3252;52.540;13.290;2023-07-08T03:18:15;15.50;99.90
6439;DHT22;3252;52.540;13.290;2023-07-08T03:20:20;15.50;99.90
6439;DHT22;3252;52.540;13.290;2023-07-08T03:22:23;15.50;99.90
6439;DHT22;3252;52.540;13.290;2023-07-08T03:24:25;15.50;99.90
6439;DHT22;3252;52.540;13.290;2023-07-08T03:26:33;15.50;99.90
6439;DHT22;3252;52.540;13.290;2023-07-08T03:28:36;15.50;99.90
6439;DHT22;3252;52.540;13.290;2023-07-08T03:30:39;15.50;99.90
6439;DHT22;3252;52.540;13.290;2023-07-08T03:32:42;15.40;99.90
6439;DHT22;3252;52.540;13.290;2023-07-08T03:34:46;15.40;99.90
6439;DHT22;3252;52.540;13.290;2023-07-08T03:36:49;15.40;99.90
6439;DHT22;3252;52.540;13.290;2023-07-08T03:38:54;15.40;99.90
6439;DHT22;3252;52.540;13.290;2023-07-08T03:40:57;15.40;99.90
6439;DHT22;3252;52.540;13.290;2023-07-08T03:42:59;15.40;99.90
6439;DHT22;3252;52.540;13.290;2023-07-08T03:45:05;15.40;99.90
6439;DHT22;3252;52.540;13.290;2023-07-08T03:47:07;15.50;99.90
6439;DHT22;3252;52.540;13.290;2023-07-08T03:49:11;15.50;99.90
6439;DHT22;3252;52.540;13.290;2023-07-08T03:51:21;15.50;99.90
6439;DHT22;3252;52.540;13.290;2023-07-08T03:53:24;15.50;99.90
6439;DHT22;3252;52.540;13.290;2023-07-08T03:55:28;15.50;99.90
6439;DHT22;3252;52.540;13.290;2023-07-08T03:57:32;15.50;99.90
6439;DHT22;3252;52.540;13.290;2023-07-08T03:59:34;15.50;99.90
6439;DHT22;3252;52.540;13.290;2023-07-08T04:01:36;15.60;99.90
6439;DHT22;3252;52.540;13.290;2023-07-08T04:03:44;15.60;99.90
6439;DHT22;3252;52.540;13.290;2023-07-08T04:05:47;15.60;99.90
6439;DHT22;3252;52.540;13.290;2023-07-08T04:07:51;15.60;99.90
6439;DHT22;3252;52.540;13.290;2023-07-08T04:09:53;15.70;99.90
6439;DHT22;3252;52.540;13.290;2023-07-08T04:11:55;15.70;99.90
6439;DHT22;3252;52.540;13.290;2023-07-08T04:13:58;15.70;99.90
6439;DHT22;3252;52.540;13.290;2023-07-08T04:16:02;15.70;99.90
6439;DHT22;3252;52.540;13.290;2023-07-08T04:18:05;15.70;99.90
6439;DHT22;3252;52.540;13.290;2023-07-08T04:20:08;15.70;99.90
6439;DHT22;3252;52.540;13.290;2023-07-08T04:22:11;15.80;99.90
6439;DHT22;3252;52.540;13.290;2023-07-08T04:24:17;15.90;99.90
6439;DHT22;3252;52.540;13.290;2023-07-08T04:26:19;15.90;99.90
6439;DHT22;3252;52.540;13.290;2023-07-08T04:28:21;16.00;99.90
6439;DHT22;3252;52.540;13.290;2023-07-08T04:30:25;16.00;99.90
6439;DHT22;3252;52.540;13.290;2023-07-08T04:32:27;16.10;99.90
6439;DHT22;3252;52.540;13.290;2023-07-08T04:34:30;16.10;99.90
6439;DHT22;3252;52.540;13.290;2023-07-08T04:36:32;16.20;99.90
6439;DHT22;3252;52.540;13.290;2023-07-08T04:38:36;16.20;99.90
6439;DHT22;3252;52.540;13.290;2023-07-08T04:40:39;16.20;99.90
6439;DHT22;3252;52.540;13.290;2023-07-08T04:42:41;16.30;99.90
6439;DHT22;3252;52.540;13.290;2023-07-08T04:44:45;16.30;99.90
6439;DHT22;3252;52.540;13.290;2023-07-08T04:46:52;16.40;99.90
6439;DHT22;3252;52.540;13.290;2023-07-08T04:49:10;16.40;99.90
6439;DHT22;3252;52.540;13.290;2023-07-08T04:51:14;16.50;99.90
6439;DHT22;3252;52.540;13.290;2023-07-08T04:53:16;16.50;99.90
6439;DHT22;3252;52.540;13.290;2023-07-08T04:55:19;16.60;99.90
6439;DHT22;3252;52.540;13.290;2023-07-08T04:57:22;16.70;99.90
6439;DHT22;3252;52.540;13.290;2023-07-08T04:59:26;16.70;99.90
6439;DHT22;3252;52.540;13.290;2023-07-08T05:01:28;16.80;99.90
6439;DHT22;3252;52.540;13.290;2023-07-08T05:03:30;16.90;99.90
6439;DHT22;3252;52.540;13.290;2023-07-08T05:05:33;16.90;99.90
6439;DHT22;3252;52.540;13.290;2023-07-08T05:07:35;17.00;99.90
6439;DHT22;3252;52.540;13.290;2023-07-08T05:09:37;17.10;99.90
6439;DHT22;3252;52.540;13.290;2023-07-08T05:11:40;17.10;99.90
6439;DHT22;3252;52.540;13.290;2023-07-08T05:13:43;17.20;99.90
6439;DHT22;3252;52.540;13.290;2023-07-08T05:15:45;17.20;99.90
6439;DHT22;3252;52.540;13.290;2023-07-08T05:17:50;17.30;99.90
6439;DHT22;3252;52.540;13.290;2023-07-08T05:19:53;17.40;99.90
6439;DHT22;3252;52.540;13.290;2023-07-08T05:21:55;17.40;99.90
6439;DHT22;3252;52.540;13.290;2023-07-08T05:23:57;17.50;99.90
6439;DHT22;3252;52.540;13.290;2023-07-08T05:26:02;17.50;99.90
6439;DHT22;3252;52.540;13.290;2023-07-08T05:28:05;17.60;99.90
6439;DHT22;3252;52.540;13.290;2023-07-08T05:30:12;17.70;99.90
6439;DHT22;3252;52.540;13.290;2023-07-08T05:32:15;17.70;99.90
6439;DHT22;3252;52.540;13.290;2023-07-08T05:34:18;17.80;99.90
6439;DHT22;3252;52.540;13.290;2023-07-08T05:36:20;17.90;99.90
6439;DHT22;3252;52.540;13.290;2023-07-08T05:38:24;17.90;99.90
6439;DHT22;3252;52.540;13.290;2023-07-08T05:40:27;18.00;99.90
6439;DHT22;3252;52.540;13.290;2023-07-08T05:42:29;18.10;99.90
6439;DHT22;3252;52.540;13.290;2023-07-08T05:44:32;18.20;99.90
6439;DHT22;3252;52.540;13.290;2023-07-08T05:46:36;18.30;99.90
6439;DHT22;3252;52.540;13.290;2023-07-08T05:48:39;18.40;99.90
6439;DHT22;3252;52.540;13.290;2023-07-08T05:50:41;18.40;99.90
6439;DHT22;3252;52.540;13.290;2023-07-08T05:52:45;18.50;99.90
6439;DHT22;3252;52.540;13.290;2023-07-08T05:54:48;18.60;99.90
6439;DHT22;3252;52.540;13.290;2023-07-08T05:56:50;18.70;99.90
6439;DHT22;3252;52.540;13.290;2023-07-08T05:58:53;18.80;99.90
6439;DHT22;3252;52.540;13.290;2023-07-08T06:00:55;18.80;99.90
6439;DHT22;3252;52.540;13.290;2023-07-08T06:02:58;18.90;99.90
6439;DHT22;3252;52.540;13.290;2023-07-08T06:05:01;19.00;99.90
6439;DHT22;3252;52.540;13.290;2023-07-08T06:07:03;19.10;99.90
6439;DHT22;3252;52.540;13.290;2023-07-08T06:09:05;19.30;99.90
6439;DHT22;3252;52.540;13.290;2023-07-08T06:11:07;19.40;99.90
6439;DHT22;3252;52.540;13.290;2023-07-08T06:13:10;19.60;99.90
6439;DHT22;3252;52.540;13.290;2023-07-08T06:15:12;19.80;98.90
6439;DHT22;3252;52.540;13.290;2023-07-08T06:17:15;20.00;98.70
6439;DHT22;3252;52.540;13.290;2023-07-08T06:19:19;20.10;98.50
6439;DHT22;3252;52.540;13.290;2023-07-08T06:21:21;20.20;98.60
6439;DHT22;3252;52.540;13.290;2023-07-08T06:23:24;20.30;98.50
6439;DHT22;3252;52.540;13.290;2023-07-08T06:25:27;20.40;99.30
6439;DHT22;3252;52.540;13.290;2023-07-08T06:27:29;20.50;98.60
6439;DHT22;3252;52.540;13.290;2023-07-08T06:29:33;20.60;98.50
6439;DHT22;3252;52.540;13.290;2023-07-08T06:31:36;20.70;98.70
6439;DHT22;3252;52.540;13.290;2023-07-08T06:33:38;20.80;98.50
6439;DHT22;3252;52.540;13.290;2023-07-08T06:35:42;20.90;96.80
6439;DHT22;3252;52.540;13.290;2023-07-08T06:37:45;21.00;97.50
6439;DHT22;3252;52.540;13.290;2023-07-08T06:39:47;21.10;97.80
6439;DHT22;3252;52.540;13.290;2023-07-08T06:41:49;21.20;97.50
6439;DHT22;3252;52.540;13.290;2023-07-08T06:43:56;21.20;96.90
6439;DHT22;3252;52.540;13.290;2023-07-08T06:46:03;21.30;95.30
6439;DHT22;3252;52.540;13.290;2023-07-08T06:48:06;21.40;96.70
6439;DHT22;3252;52.540;13.290;2023-07-08T06:50:08;21.50;95.50
6439;DHT22;3252;52.540;13.290;2023-07-08T06:52:12;21.60;95.90
6439;DHT22;3252;52.540;13.290;2023-07-08T06:54:15;21.60;94.50
6439;DHT22;3252;52.540;13.290;2023-07-08T06:56:17;21.70;95.20
6439;DHT22;3252;52.540;13.290;2023-07-08T06:58:20;21.80;94.70
6439;DHT22;3252;52.540;13.290;2023-07-08T07:00:22;21.90;93.40
6439;DHT22;3252;52.540;13.290;2023-07-08T07:02:24;22.00;92.40
6439;DHT22;3252;52.540;13.290;2023-07-08T07:04:27;22.20;88.30
6439;DHT22;3252;52.540;13.290;2023-07-08T07:06:31;22.30;88.00
6439;DHT22;3252;52.540;13.290;2023-07-08T07:08:35;22.40;89.60
6439;DHT22;3252;52.540;13.290;2023-07-08T07:10:37;22.40;90.60
6439;DHT22;3252;52.540;13.290;2023-07-08T07:12:40;22.50;90.70
6439;DHT22;3252;52.540;13.290;2023-07-08T07:14:42;22.50;90.00
6439;DHT22;3252;52.540;13.290;2023-07-08T07:16:44;22.60;91.20
6439;DHT22;3252;52.540;13.290;2023-07-08T07:18:47;22.60;92.10
6439;DHT22;3252;52.540;13.290;2023-07-08T07:20:53;22.70;89.20
6439;DHT22;3252;52.540;13.290;2023-07-08T07:22:58;22.70;88.10
6439;DHT22;3252;52.540;13.290;2023-07-08T07:25:03;22.80;85.50
6439;DHT22;3252;52.540;13.290;2023-07-08T07:27:06;22.90;84.70
6439;DHT22;3252;52.540;13.290;2023-07-08T07:29:08;23.10;84.40
6439;DHT22;3252;52.540;13.290;2023-07-08T07:31:11;23.20;84.30
6439;DHT22;3252;52.540;13.290;2023-07-08T07:33:13;23.30;81.80
6439;DHT22;3252;52.540;13.290;2023-07-08T07:35:16;23.40;83.00
6439;DHT22;3252;52.540;13.290;2023-07-08T07:37:21;23.50;79.30
6439;DHT22;3252;52.540;13.290;2023-07-08T07:39:23;23.60;74.20
6439;DHT22;3252;52.540;13.290;2023-07-08T07:41:27;23.70;75.10
6439;DHT22;3252;52.540;13.290;2023-07-08T07:43:29;23.80;77.80
6439;DHT22;3252;52.540;13.290;2023-07-08T07:45:32;23.90;75.70
6439;DHT22;3252;52.540;13.290;2023-07-08T07:47:34;24.00;73.60
6439;DHT22;3252;52.540;13.290;2023-07-08T07:49:37;24.10;73.40
6439;DHT22;3252;52.540;13.290;2023-07-08T07:51:39;24.20;74.90
6439;DHT22;3252;52.540;13.290;2023-07-08T07:53:42;24.20;72.20
6439;DHT22;3252;52.540;13.290;2023-07-08T07:55:44;24.30;71.90
6439;DHT22;3252;52.540;13.290;2023-07-08T07:57:48;24.40;73.60
6439;DHT22;3252;52.540;13.290;2023-07-08T07:59:49;24.60;73.40
6439;DHT22;3252;52.540;13.290;2023-07-08T08:01:52;24.90;71.30
6439;DHT22;3252;52.540;13.290;2023-07-08T08:03:54;25.00;71.50
6439;DHT22;3252;52.540;13.290;2023-07-08T08:05:55;25.00;70.90
6439;DHT22;3252;52.540;13.290;2023-07-08T08:07:58;25.00;69.00
6439;DHT22;3252;52.540;13.290;2023-07-08T08:10:00;25.00;68.30
6439;DHT22;3252;52.540;13.290;2023-07-08T08:12:04;24.90;69.10
6439;DHT22;3252;52.540;13.290;2023-07-08T08:14:08;24.90;70.00
6439;DHT22;3252;52.540;13.290;2023-07-08T08:16:10;24.90;70.60
6439;DHT22;3252;52.540;13.290;2023-07-08T08:18:13;25.00;71.40
6439;DHT22;3252;52.540;13.290;2023-07-08T08:20:15;25.00;71.30
6439;DHT22;3252;52.540;13.290;2023-07-08T08:22:17;25.00;72.30
6439;DHT22;3252;52.540;13.290;2023-07-08T08:24:22;25.10;72.70
6439;DHT22;3252;52.540;13.290;2023-07-08T08:26:24;25.10;71.70
6439;DHT22;3252;52.540;13.290;2023-07-08T08:28:26;25.10;70.30
6439;DHT22;3252;52.540;13.290;2023-07-08T08:30:31;25.10;69.60
6439;DHT22;3252;52.540;13.290;2023-07-08T08:32:34;25.10;65.90
6439;DHT22;3252;52.540;13.290;2023-07-08T08:34:36;25.20;68.60
6439;DHT22;3252;52.540;13.290;2023-07-08T08:36:39;25.20;68.80
6439;DHT22;3252;52.540;13.290;2023-07-08T08:38:41;25.30;70.80
6439;DHT22;3252;52.540;13.290;2023-07-08T08:40:44;25.40;69.30
6439;DHT22;3252;52.540;13.290;2023-07-08T08:42:52;25.40;69.60
6439;DHT22;3252;52.540;13.290;2023-07-08T08:44:56;25.70;70.10
6439;DHT22;3252;52.540;13.290;2023-07-08T08:47:06;25.90;64.00
6439;DHT22;3252;52.540;13.290;2023-07-08T08:49:18;26.00;63.60
6439;DHT22;3252;52.540;13.290;2023-07-08T08:51:25;26.00;64.40
6439;DHT22;3252;52.540;13.290;2023-07-08T08:53:28;26.00;59.80
6439;DHT22;3252;52.540;13.290;2023-07-08T08:55:31;26.10;60.40
6439;DHT22;3252;52.540;13.290;2023-07-08T08:57:38;26.10;61.80
6439;DHT22;3252;52.540;13.290;2023-07-08T08:59:47;26.10;58.50
6439;DHT22;3252;52.540;13.290;2023-07-08T09:01:51;26.50;58.10
6439;DHT22;3252;52.540;13.290;2023-07-08T09:03:57;26.60;54.10
6439;DHT22;3252;52.540;13.290;2023-07-08T09:06:04;26.50;55.70
6439;DHT22;3252;52.540;13.290;2023-07-08T09:08:13;26.50;52.80
6439;DHT22;3252;52.540;13.290;2023-07-08T09:10:25;26.60;53.70
6439;DHT22;3252;52.540;13.290;2023-07-08T09:12:33;26.60;54.10
6439;DHT22;3252;52.540;13.290;2023-07-08T09:14:36;26.70;54.70
6439;DHT22;3252;52.540;13.290;2023-07-08T09:16:43;26.70;51.20
6439;DHT22;3252;52.540;13.290;2023-07-08T09:18:58;26.90;51.20
6439;DHT22;3252;52.540;13.290;2023-07-08T09:23:27;27.20;52.20
6439;DHT22;3252;52.540;13.290;2023-07-08T09:25:34;27.70;50.30
6439;DHT22;3252;52.540;13.290;2023-07-08T09:27:37;28.20;48.40
6439;DHT22;3252;52.540;13.290;2023-07-08T09:29:39;28.30;46.60
6439;DHT22;3252;52.540;13.290;2023-07-08T09:31:42;28.00;45.60
6439;DHT22;3252;52.540;13.290;2023-07-08T09:33:45;27.90;46.90
6439;DHT22;3252;52.540;13.290;2023-07-08T09:35:48;27.80;47.80
6439;DHT22;3252;52.540;13.290;2023-07-08T09:37:56;27.70;47.00
6439;DHT22;3252;52.540;13.290;2023-07-08T09:40:03;27.60;46.70
6439;DHT22;3252;52.540;13.290;2023-07-08T09:42:06;27.50;45.20
6439;DHT22;3252;52.540;13.290;2023-07-08T09:44:16;27.50;46.90
6439;DHT22;3252;52.540;13.290;2023-07-08T09:46:19;27.50;46.80
6439;DHT22;3252;52.540;13.290;2023-07-08T09:48:26;27.50;46.40
6439;DHT22;3252;52.540;13.290;2023-07-08T09:50:29;27.50;46.10
6439;DHT22;3252;52.540;13.290;2023-07-08T09:52:35;27.40;46.10
6439;DHT22;3252;52.540;13.290;2023-07-08T09:54:37;27.40;46.40
6439;DHT22;3252;52.540;13.290;2023-07-08T09:56:44;27.50;46.50
6439;DHT22;3252;52.540;13.290;2023-07-08T09:58:51;27.50;46.00
6439;DHT22;3252;52.540;13.290;2023-07-08T10:00:55;27.50;45.10
6439;DHT22;3252;52.540;13.290;2023-07-08T10:03:03;27.50;44.70
6439;DHT22;3252;52.540;13.290;2023-07-08T10:05:13;27.50;44.20
6439;DHT22;3252;52.540;13.290;2023-07-08T10:07:17;27.50;43.50
6439;DHT22;3252;52.540;13.290;2023-07-08T10:09:24;27.50;44.30
6439;DHT22;3252;52.540;13.290;2023-07-08T10:11:29;27.50;45.30
6439;DHT22;3252;52.540;13.290;2023-07-08T10:13:37;27.60;45.50
6439;DHT22;3252;52.540;13.290;2023-07-08T10:15:44;27.60;42.70
6439;DHT22;3252;52.540;13.290;2023-07-08T10:17:48;27.60;43.40
6439;DHT22;3252;52.540;13.290;2023-07-08T10:19:50;27.70;44.30
6439;DHT22;3252;52.540;13.290;2023-07-08T10:22:05;27.70;44.00
6439;DHT22;3252;52.540;13.290;2023-07-08T10:24:25;27.80;43.70
6439;DHT22;3252;52.540;13.290;2023-07-08T10:26:32;27.80;43.20
6439;DHT22;3252;52.540;13.290;2023-07-08T10:28:42;27.80;43.10
6439;DHT22;3252;52.540;13.290;2023-07-08T10:30:53;27.90;43.20
6439;DHT22;3252;52.540;13.290;2023-07-08T10:33:40;27.90;42.40
6439;DHT22;3252;52.540;13.290;2023-07-08T10:35:54;27.90;43.20
6439;DHT22;3252;52.540;13.290;2023-07-08T10:38:15;28.00;44.40
6439;DHT22;3252;52.540;13.290;2023-07-08T10:40:34;28.10;42.50
6439;DHT22;3252;52.540;13.290;2023-07-08T10:42:53;28.20;42.80
6439;DHT22;3252;52.540;13.290;2023-07-08T10:45:04;28.20;42.70
6439;DHT22;3252;52.540;13.290;2023-07-08T10:47:16;28.30;42.10
6439;DHT22;3252;52.540;13.290;2023-07-08T10:49:34;28.20;42.10
6439;DHT22;3252;52.540;13.290;2023-07-08T10:51:46;28.30;41.80
6439;DHT22;3252;52.540;13.290;2023-07-08T10:54:05;28.40;41.00
6439;DHT22;3252;52.540;13.290;2023-07-08T10:56:15;28.40;41.80
6439;DHT22;3252;52.540;13.290;2023-07-08T10:58:40;28.50;42.60
6439;DHT22;3252;52.540;13.290;2023-07-08T11:00:52;28.50;41.70
6439;DHT22;3252;52.540;13.290;2023-07-08T11:05:42;28.60;41.70
6439;DHT22;3252;52.540;13.290;2023-07-08T11:07:47;28.60;42.10
6439;DHT22;3252;52.540;13.290;2023-07-08T11:09:56;28.60;43.00
6439;DHT22;3252;52.540;13.290;2023-07-08T11:12:04;28.60;42.50
6439;DHT22;3252;52.540;13.290;2023-07-08T11:14:13;28.70;42.60
6439;DHT22;3252;52.540;13.290;2023-07-08T11:16:22;28.70;42.60
6439;DHT22;3252;52.540;13.290;2023-07-08T11:18:39;28.70;41.50
6439;DHT22;3252;52.540;13.290;2023-07-08T11:20:47;28.70;41.10
6439;DHT22;3252;52.540;13.290;2023-07-08T11:23:01;28.70;40.70
6439;DHT22;3252;52.540;13.290;2023-07-08T11:25:16;28.70;40.70
6439;DHT22;3252;52.540;13.290;2023-07-08T11:27:23;28.70;40.30
6439;DHT22;3252;52.540;13.290;2023-07-08T11:29:36;28.60;40.70
6439;DHT22;3252;52.540;13.290;2023-07-08T11:31:39;28.60;39.60
6439;DHT22;3252;52.540;13.290;2023-07-08T11:33:43;28.60;39.60
6439;DHT22;3252;52.540;13.290;2023-07-08T11:35:49;28.70;40.60
6439;DHT22;3252;52.540;13.290;2023-07-08T11:37:53;28.70;41.20
6439;DHT22;3252;52.540;13.290;2023-07-08T11:39:59;28.80;40.90
6439;DHT22;3252;52.540;13.290;2023-07-08T11:42:18;28.80;40.30
6439;DHT22;3252;52.540;13.290;2023-07-08T11:44:23;28.90;40.50
6439;DHT22;3252;52.540;13.290;2023-07-08T11:46:27;28.80;40.00
6439;DHT22;3252;52.540;13.290;2023-07-08T11:48:35;28.90;41.10
6439;DHT22;3252;52.540;13.290;2023-07-08T11:50:41;28.90;41.00
6439;DHT22;3252;52.540;13.290;2023-07-08T11:52:51;29.00;40.50
6439;DHT22;3252;52.540;13.290;2023-07-08T11:55:03;29.00;40.90
6439;DHT22;3252;52.540;13.290;2023-07-08T11:57:15;29.10;40.50
6439;DHT22;3252;52.540;13.290;2023-07-08T11:59:19;29.00;40.40
6439;DHT22;3252;52.540;13.290;2023-07-08T12:01:26;29.00;40.80
6439;DHT22;3252;52.540;13.290;2023-07-08T12:03:35;29.10;39.70
6439;DHT22;3252;52.540;13.290;2023-07-08T12:05:38;29.10;40.60
6439;DHT22;3252;52.540;13.290;2023-07-08T12:07:42;29.10;40.40
6439;DHT22;3252;52.540;13.290;2023-07-08T12:09:49;29.10;40.70
6439;DHT22;3252;52.540;13.290;2023-07-08T12:11:55;29.10;40.50
6439;DHT22;3252;52.540;13.290;2023-07-08T12:14:04;29.20;40.70
6439;DHT22;3252;52.540;13.290;2023-07-08T12:16:10;29.20;39.60
6439;DHT22;3252;52.540;13.290;2023-07-08T12:18:15;29.20;39.40
6439;DHT22;3252;52.540;13.290;2023-07-08T12:20:21;29.20;39.50
6439;DHT22;3252;52.540;13.290;2023-07-08T12:22:24;29.10;38.60
6439;DHT22;3252;52.540;13.290;2023-07-08T12:24:28;29.00;38.30
6439;DHT22;3252;52.540;13.290;2023-07-08T12:26:31;29.00;38.80
6439;DHT22;3252;52.540;13.290;2023-07-08T12:28:37;29.00;38.60
6439;DHT22;3252;52.540;13.290;2023-07-08T12:30:41;29.00;40.50
6439;DHT22;3252;52.540;13.290;2023-07-08T12:32:44;29.10;39.40
6439;DHT22;3252;52.540;13.290;2023-07-08T12:34:48;29.10;38.90
6439;DHT22;3252;52.540;13.290;2023-07-08T12:36:51;29.10;39.10
6439;DHT22;3252;52.540;13.290;2023-07-08T12:38:55;29.10;38.60
6439;DHT22;3252;52.540;13.290;2023-07-08T12:41:00;29.10;38.70
6439;DHT22;3252;52.540;13.290;2023-07-08T12:43:08;29.10;39.90
6439;DHT22;3252;52.540;13.290;2023-07-08T12:45:16;29.10;40.10
6439;DHT22;3252;52.540;13.290;2023-07-08T12:47:21;29.20;39.40
6439;DHT22;3252;52.540;13.290;2023-07-08T12:49:24;29.20;40.50
6439;DHT22;3252;52.540;13.290;2023-07-08T12:51:29;29.30;40.20
6439;DHT22;3252;52.540;13.290;2023-07-08T12:53:31;29.20;38.90
6439;DHT22;3252;52.540;13.290;2023-07-08T12:55:35;29.20;39.60
6439;DHT22;3252;52.540;13.290;2023-07-08T12:57:40;29.20;38.50
6439;DHT22;3252;52.540;13.290;2023-07-08T12:59:46;29.20;39.60
6439;DHT22;3252;52.540;13.290;2023-07-08T13:01:49;29.20;39.10
6439;DHT22;3252;52.540;13.290;2023-07-08T13:03:56;29.20;38.10
6439;DHT22;3252;52.540;13.290;2023-07-08T13:06:01;29.20;38.90
6439;DHT22;3252;52.540;13.290;2023-07-08T13:08:06;29.20;40.40
6439;DHT22;3252;52.540;13.290;2023-07-08T13:10:17;29.30;39.80
6439;DHT22;3252;52.540;13.290;2023-07-08T13:12:22;29.40;40.20
6439;DHT22;3252;52.540;13.290;2023-07-08T13:14:25;29.40;40.20
6439;DHT22;3252;52.540;13.290;2023-07-08T13:16:32;29.50;39.30
6439;DHT22;3252;52.540;13.290;2023-07-08T13:18:37;29.50;39.20
6439;DHT22;3252;52.540;13.290;2023-07-08T13:20:41;29.60;39.10
6439;DHT22;3252;52.540;13.290;2023-07-08T13:22:52;29.60;39.80
6439;DHT22;3252;52.540;13.290;2023-07-08T13:25:07;29.60;39.90
6439;DHT22;3252;52.540;13.290;2023-07-08T13:27:20;29.70;40.80